sensor_id;sensor_type;location;lat;lon;timestamp;temperature;humidity
728;DHT22;347;48.780;9.158;2022-11-30T00:00:34;10.20;41.00
728;DHT22;347;48.780;9.158;2022-11-30T00:03:00;10.10;41.70
728;DHT22;347;48.780;9.158;2022-11-30T00:05:25;10.10;42.20
728;DHT22;347;48.780;9.158;2022-11-30T00:07:51;10.20;41.80
728;DHT22;347;48.780;9.158;2022-11-30T00:10:20;10.20;41.80
728;DHT22;347;48.780;9.158;2022-11-30T00:12:46;10.20;41.80
728;DHT22;347;48.780;9.158;2022-11-30T00:15:13;10.20;41.80
728;DHT22;347;48.780;9.158;2022-11-30T00:17:43;10.30;41.30
728;DHT22;347;48.780;9.158;2022-11-30T00:20:09;10.30;41.20
728;DHT22;347;48.780;9.158;2022-11-30T00:22:35;10.30;41.00
728;DHT22;347;48.780;9.158;2022-11-30T00:25:01;10.30;41.40
728;DHT22;347;48.780;9.158;2022-11-30T00:27:30;10.20;41.80
728;DHT22;347;48.780;9.158;2022-11-30T00:29:56;10.20;41.30
728;DHT22;347;48.780;9.158;2022-11-30T00:32:22;10.20;41.50
728;DHT22;347;48.780;9.158;2022-11-30T00:34:47;10.30;41.90
728;DHT22;347;48.780;9.158;2022-11-30T00:37:13;10.30;41.10
728;DHT22;347;48.780;9.158;2022-11-30T00:39:39;10.20;40.80
728;DHT22;347;48.780;9.158;2022-11-30T00:42:05;10.20;40.60
728;DHT22;347;48.780;9.158;2022-11-30T00:44:30;10.20;40.80
728;DHT22;347;48.780;9.158;2022-11-30T00:46:56;10.20;40.90
728;DHT22;347;48.780;9.158;2022-11-30T00:49:22;10.30;40.80
728;DHT22;347;48.780;9.158;2022-11-30T00:51:48;10.20;40.50
728;DHT22;347;48.780;9.158;2022-11-30T00:54:13;10.20;40.60
728;DHT22;347;48.780;9.158;2022-11-30T00:56:39;10.30;40.80
728;DHT22;347;48.780;9.158;2022-11-30T00:59:04;10.30;40.60
728;DHT22;347;48.780;9.158;2022-11-30T01:01:30;10.20;40.40
728;DHT22;347;48.780;9.158;2022-11-30T01:03:56;10.20;40.40
728;DHT22;347;48.780;9.158;2022-11-30T01:06:22;10.20;41.00
728;DHT22;347;48.780;9.158;2022-11-30T01:08:48;10.20;41.20
728;DHT22;347;48.780;9.158;2022-11-30T01:13:43;10.30;40.60
728;DHT22;347;48.780;9.158;2022-11-30T01:16:15;10.30;40.60
728;DHT22;347;48.780;9.158;2022-11-30T01:18:41;10.20;40.30
728;DHT22;347;48.780;9.158;2022-11-30T01:21:09;10.10;40.70
728;DHT22;347;48.780;9.158;2022-11-30T01:23:35;10.20;41.20
728;DHT22;347;48.780;9.158;2022-11-30T01:26:01;10.20;40.80
728;DHT22;347;48.780;9.158;2022-11-30T01:28:27;10.10;41.00
728;DHT22;347;48.780;9.158;2022-11-30T01:31:01;10.10;41.20
728;DHT22;347;48.780;9.158;2022-11-30T01:33:27;10.10;41.10
728;DHT22;347;48.780;9.158;2022-11-30T01:38:24;10.10;41.70
728;DHT22;347;48.780;9.158;2022-11-30T01:40:50;10.10;41.70
728;DHT22;347;48.780;9.158;2022-11-30T01:43:17;10.10;41.40
728;DHT22;347;48.780;9.158;2022-11-30T01:45:43;10.10;41.40
728;DHT22;347;48.780;9.158;2022-11-30T01:48:09;10.10;41.20
728;DHT22;347;48.780;9.158;2022-11-30T01:50:35;10.20;41.40
728;DHT22;347;48.780;9.158;2022-11-30T01:53:02;10.20;41.40
728;DHT22;347;48.780;9.158;2022-11-30T01:55:39;10.20;41.00
728;DHT22;347;48.780;9.158;2022-11-30T01:58:09;10.20;41.90
728;DHT22;347;48.780;9.158;2022-11-30T02:00:36;10.20;41.70
728;DHT22;347;48.780;9.158;2022-11-30T02:03:09;10.20;42.00
728;DHT22;347;48.780;9.158;2022-11-30T02:05:39;10.20;40.90
728;DHT22;347;48.780;9.158;2022-11-30T02:08:07;10.20;41.00
728;DHT22;347;48.780;9.158;2022-11-30T02:10:39;10.20;41.00
728;DHT22;347;48.780;9.158;2022-11-30T02:27:43;10.30;40.80
728;DHT22;347;48.780;9.158;2022-11-30T02:30:15;10.20;40.60
728;DHT22;347;48.780;9.158;2022-11-30T02:33:00;10.20;40.90
728;DHT22;347;48.780;9.158;2022-11-30T02:35:30;10.20;41.00
728;DHT22;347;48.780;9.158;2022-11-30T02:37:58;10.20;40.80
728;DHT22;347;48.780;9.158;2022-11-30T02:40:25;10.20;40.90
728;DHT22;347;48.780;9.158;2022-11-30T02:42:52;10.20;41.20
728;DHT22;347;48.780;9.158;2022-11-30T02:45:28;10.20;40.80
728;DHT22;347;48.780;9.158;2022-11-30T02:48:06;10.10;40.90
728;DHT22;347;48.780;9.158;2022-11-30T02:50:53;10.00;41.60
728;DHT22;347;48.780;9.158;2022-11-30T02:53:21;10.10;41.70
728;DHT22;347;48.780;9.158;2022-11-30T02:55:47;10.10;41.70
728;DHT22;347;48.780;9.158;2022-11-30T02:58:14;10.10;41.10
728;DHT22;347;48.780;9.158;2022-11-30T03:00:40;10.00;41.70
728;DHT22;347;48.780;9.158;2022-11-30T03:03:06;10.00;41.60
728;DHT22;347;48.780;9.158;2022-11-30T03:05:31;10.10;41.70
728;DHT22;347;48.780;9.158;2022-11-30T03:07:57;10.10;41.40
728;DHT22;347;48.780;9.158;2022-11-30T03:10:23;10.10;41.70
728;DHT22;347;48.780;9.158;2022-11-30T03:12:48;10.10;41.70
728;DHT22;347;48.780;9.158;2022-11-30T03:15:14;10.10;41.60
728;DHT22;347;48.780;9.158;2022-11-30T03:17:40;10.10;41.70
728;DHT22;347;48.780;9.158;2022-11-30T03:20:06;10.10;41.70
728;DHT22;347;48.780;9.158;2022-11-30T03:22:32;10.10;41.70
728;DHT22;347;48.780;9.158;2022-11-30T03:24:57;10.10;41.70
728;DHT22;347;48.780;9.158;2022-11-30T03:27:23;10.20;41.40
728;DHT22;347;48.780;9.158;2022-11-30T03:29:48;10.10;41.00
728;DHT22;347;48.780;9.158;2022-11-30T03:32:14;10.10;41.10
728;DHT22;347;48.780;9.158;2022-11-30T03:34:40;10.10;40.50
728;DHT22;347;48.780;9.158;2022-11-30T03:37:05;10.20;40.70
728;DHT22;347;48.780;9.158;2022-11-30T03:39:31;10.20;41.00
728;DHT22;347;48.780;9.158;2022-11-30T03:41:56;10.20;40.50
728;DHT22;347;48.780;9.158;2022-11-30T03:44:22;10.00;41.60
728;DHT22;347;48.780;9.158;2022-11-30T03:46:48;10.00;41.60
728;DHT22;347;48.780;9.158;2022-11-30T03:49:13;10.00;41.60
728;DHT22;347;48.780;9.158;2022-11-30T03:51:39;10.10;41.70
728;DHT22;347;48.780;9.158;2022-11-30T03:54:05;10.10;41.30
728;DHT22;347;48.780;9.158;2022-11-30T03:56:30;10.20;41.80
728;DHT22;347;48.780;9.158;2022-11-30T03:58:56;10.10;40.80
728;DHT22;347;48.780;9.158;2022-11-30T04:01:22;10.10;41.10
728;DHT22;347;48.780;9.158;2022-11-30T04:03:50;10.10;41.70
728;DHT22;347;48.780;9.158;2022-11-30T04:06:17;10.20;41.80
728;DHT22;347;48.780;9.158;2022-11-30T04:08:42;10.20;41.60
728;DHT22;347;48.780;9.158;2022-11-30T04:11:09;10.20;41.40
728;DHT22;347;48.780;9.158;2022-11-30T04:13:36;10.30;41.10
728;DHT22;347;48.780;9.158;2022-11-30T04:16:02;10.30;40.40
728;DHT22;347;48.780;9.158;2022-11-30T04:18:29;10.40;40.90
728;DHT22;347;48.780;9.158;2022-11-30T04:20:57;10.40;40.90
728;DHT22;347;48.780;9.158;2022-11-30T04:23:24;10.50;40.80
728;DHT22;347;48.780;9.158;2022-11-30T04:25:51;10.60;40.10
728;DHT22;347;48.780;9.158;2022-11-30T04:28:17;10.60;39.90
728;DHT22;347;48.780;9.158;2022-11-30T04:30:43;10.70;39.60
728;DHT22;347;48.780;9.158;2022-11-30T04:33:11;10.70;39.30
728;DHT22;347;48.780;9.158;2022-11-30T04:35:42;10.70;38.90
728;DHT22;347;48.780;9.158;2022-11-30T04:38:08;10.70;38.90
728;DHT22;347;48.780;9.158;2022-11-30T04:40:33;10.80;38.90
728;DHT22;347;48.780;9.158;2022-11-30T04:42:59;10.80;38.90
728;DHT22;347;48.780;9.158;2022-11-30T04:45:25;10.70;38.90
728;DHT22;347;48.780;9.158;2022-11-30T04:47:50;10.80;38.90
728;DHT22;347;48.780;9.158;2022-11-30T04:50:16;10.80;38.70
728;DHT22;347;48.780;9.158;2022-11-30T04:52:41;10.80;38.60
728;DHT22;347;48.780;9.158;2022-11-30T04:55:07;10.70;38.40
728;DHT22;347;48.780;9.158;2022-11-30T04:57:33;10.70;38.60
728;DHT22;347;48.780;9.158;2022-11-30T04:59:59;10.70;38.50
728;DHT22;347;48.780;9.158;2022-11-30T05:02:24;10.60;39.00
728;DHT22;347;48.780;9.158;2022-11-30T05:04:50;10.40;39.00
728;DHT22;347;48.780;9.158;2022-11-30T05:07:15;10.20;40.40
728;DHT22;347;48.780;9.158;2022-11-30T05:09:41;10.20;41.60
728;DHT22;347;48.780;9.158;2022-11-30T05:12:07;10.30;40.80
728;DHT22;347;48.780;9.158;2022-11-30T05:14:32;10.30;40.60
728;DHT22;347;48.780;9.158;2022-11-30T05:16:58;10.30;40.20
728;DHT22;347;48.780;9.158;2022-11-30T05:19:23;10.30;40.20
728;DHT22;347;48.780;9.158;2022-11-30T05:21:49;10.40;40.10
728;DHT22;347;48.780;9.158;2022-11-30T05:24:15;10.40;40.20
728;DHT22;347;48.780;9.158;2022-11-30T05:26:40;10.40;40.10
728;DHT22;347;48.780;9.158;2022-11-30T05:29:06;10.40;40.40
728;DHT22;347;48.780;9.158;2022-11-30T05:31:32;10.40;40.20
728;DHT22;347;48.780;9.158;2022-11-30T05:33:58;10.40;40.20
728;DHT22;347;48.780;9.158;2022-11-30T05:36:23;10.40;40.00
728;DHT22;347;48.780;9.158;2022-11-30T05:38:49;10.40;40.10
728;DHT22;347;48.780;9.158;2022-11-30T05:41:15;10.30;40.20
728;DHT22;347;48.780;9.158;2022-11-30T05:43:40;10.30;40.20
728;DHT22;347;48.780;9.158;2022-11-30T05:46:07;10.30;40.50
728;DHT22;347;48.780;9.158;2022-11-30T05:48:34;10.20;40.70
728;DHT22;347;48.780;9.158;2022-11-30T05:51:11;10.20;40.70
728;DHT22;347;48.780;9.158;2022-11-30T05:53:37;10.30;40.60
728;DHT22;347;48.780;9.158;2022-11-30T05:56:05;10.30;40.40
728;DHT22;347;48.780;9.158;2022-11-30T05:58:31;10.30;40.10
728;DHT22;347;48.780;9.158;2022-11-30T06:00:57;10.30;40.50
728;DHT22;347;48.780;9.158;2022-11-30T06:03:23;10.30;40.20
728;DHT22;347;48.780;9.158;2022-11-30T06:05:50;10.20;40.40
728;DHT22;347;48.780;9.158;2022-11-30T06:08:16;10.30;40.60
728;DHT22;347;48.780;9.158;2022-11-30T06:10:42;10.20;40.20
728;DHT22;347;48.780;9.158;2022-11-30T06:13:08;10.20;40.60
728;DHT22;347;48.780;9.158;2022-11-30T06:15:36;10.20;40.50
728;DHT22;347;48.780;9.158;2022-11-30T06:18:02;10.20;40.70
728;DHT22;347;48.780;9.158;2022-11-30T06:20:28;10.20;40.40
728;DHT22;347;48.780;9.158;2022-11-30T06:22:53;10.00;41.60
728;DHT22;347;48.780;9.158;2022-11-30T06:25:20;10.00;42.30
728;DHT22;347;48.780;9.158;2022-11-30T06:27:45;10.00;41.70
728;DHT22;347;48.780;9.158;2022-11-30T06:30:11;10.10;41.70
728;DHT22;347;48.780;9.158;2022-11-30T06:32:37;10.10;41.30
728;DHT22;347;48.780;9.158;2022-11-30T06:35:03;10.20;40.70
728;DHT22;347;48.780;9.158;2022-11-30T06:37:28;10.20;40.50
728;DHT22;347;48.780;9.158;2022-11-30T06:39:54;10.20;40.60
728;DHT22;347;48.780;9.158;2022-11-30T06:42:20;10.10;40.80
728;DHT22;347;48.780;9.158;2022-11-30T06:44:45;10.10;40.90
728;DHT22;347;48.780;9.158;2022-11-30T06:47:12;10.10;41.70
728;DHT22;347;48.780;9.158;2022-11-30T06:49:38;10.10;41.10
728;DHT22;347;48.780;9.158;2022-11-30T06:52:04;10.10;41.10
728;DHT22;347;48.780;9.158;2022-11-30T06:54:30;10.20;41.00
728;DHT22;347;48.780;9.158;2022-11-30T06:56:55;10.10;41.10
728;DHT22;347;48.780;9.158;2022-11-30T06:59:22;10.10;40.50
728;DHT22;347;48.780;9.158;2022-11-30T07:01:48;10.10;41.30
728;DHT22;347;48.780;9.158;2022-11-30T07:04:14;10.00;41.30
728;DHT22;347;48.780;9.158;2022-11-30T07:06:39;10.10;41.50
728;DHT22;347;48.780;9.158;2022-11-30T07:09:05;10.10;40.90
728;DHT22;347;48.780;9.158;2022-11-30T07:11:31;10.10;41.10
728;DHT22;347;48.780;9.158;2022-11-30T07:13:57;10.10;41.30
728;DHT22;347;48.780;9.158;2022-11-30T07:16:23;10.20;41.70
728;DHT22;347;48.780;9.158;2022-11-30T07:18:49;10.20;41.80
728;DHT22;347;48.780;9.158;2022-11-30T07:21:14;10.30;41.90
728;DHT22;347;48.780;9.158;2022-11-30T07:23:40;10.30;41.70
728;DHT22;347;48.780;9.158;2022-11-30T07:26:24;10.30;41.90
728;DHT22;347;48.780;9.158;2022-11-30T07:28:51;10.30;41.90
728;DHT22;347;48.780;9.158;2022-11-30T07:31:26;10.40;41.90
728;DHT22;347;48.780;9.158;2022-11-30T07:33:52;10.30;40.80
728;DHT22;347;48.780;9.158;2022-11-30T07:36:20;10.30;41.40
728;DHT22;347;48.780;9.158;2022-11-30T07:38:46;10.30;41.40
728;DHT22;347;48.780;9.158;2022-11-30T07:41:12;10.20;41.20
728;DHT22;347;48.780;9.158;2022-11-30T07:43:38;10.10;41.70
728;DHT22;347;48.780;9.158;2022-11-30T07:46:03;10.20;41.80
728;DHT22;347;48.780;9.158;2022-11-30T07:48:30;10.20;41.80
728;DHT22;347;48.780;9.158;2022-11-30T07:51:06;10.20;41.80
728;DHT22;347;48.780;9.158;2022-11-30T07:53:32;10.20;41.80
728;DHT22;347;48.780;9.158;2022-11-30T07:56:07;10.30;41.50
728;DHT22;347;48.780;9.158;2022-11-30T07:58:33;10.30;41.30
728;DHT22;347;48.780;9.158;2022-11-30T08:01:07;10.30;41.30
728;DHT22;347;48.780;9.158;2022-11-30T08:03:34;10.30;41.40
728;DHT22;347;48.780;9.158;2022-11-30T08:06:05;10.40;41.30
728;DHT22;347;48.780;9.158;2022-11-30T08:08:39;10.40;41.30
728;DHT22;347;48.780;9.158;2022-11-30T08:11:07;10.40;41.40
728;DHT22;347;48.780;9.158;2022-11-30T08:13:33;10.40;41.40
728;DHT22;347;48.780;9.158;2022-11-30T08:16:07;10.40;41.00
728;DHT22;347;48.780;9.158;2022-11-30T08:18:34;10.40;41.00
728;DHT22;347;48.780;9.158;2022-11-30T08:21:02;10.40;41.20
728;DHT22;347;48.780;9.158;2022-11-30T08:23:29;10.30;40.00
728;DHT22;347;48.780;9.158;2022-11-30T08:25:55;10.20;41.70
728;DHT22;347;48.780;9.158;2022-11-30T08:28:20;10.20;41.30
728;DHT22;347;48.780;9.158;2022-11-30T08:30:46;10.10;41.20
728;DHT22;347;48.780;9.158;2022-11-30T08:33:13;10.20;41.40
728;DHT22;347;48.780;9.158;2022-11-30T08:35:38;10.10;41.70
728;DHT22;347;48.780;9.158;2022-11-30T08:38:04;10.10;41.70
728;DHT22;347;48.780;9.158;2022-11-30T08:40:29;10.00;42.00
728;DHT22;347;48.780;9.158;2022-11-30T08:42:57;9.80;43.70
728;DHT22;347;48.780;9.158;2022-11-30T08:45:23;9.80;43.10
728;DHT22;347;48.780;9.158;2022-11-30T08:47:49;9.90;41.40
728;DHT22;347;48.780;9.158;2022-11-30T08:50:15;9.80;40.30
728;DHT22;347;48.780;9.158;2022-11-30T08:52:41;9.60;39.70
728;DHT22;347;48.780;9.158;2022-11-30T08:55:07;9.60;40.00
728;DHT22;347;48.780;9.158;2022-11-30T08:57:33;9.40;40.20
728;DHT22;347;48.780;9.158;2022-11-30T08:59:59;9.50;40.40
728;DHT22;347;48.780;9.158;2022-11-30T09:02:25;9.40;40.50
728;DHT22;347;48.780;9.158;2022-11-30T09:04:50;9.50;41.30
728;DHT22;347;48.780;9.158;2022-11-30T09:07:18;9.50;39.90
728;DHT22;347;48.780;9.158;2022-11-30T09:09:44;9.60;40.00
728;DHT22;347;48.780;9.158;2022-11-30T09:12:09;9.60;39.50
728;DHT22;347;48.780;9.158;2022-11-30T09:14:35;9.70;38.90
728;DHT22;347;48.780;9.158;2022-11-30T09:17:01;9.80;40.10
728;DHT22;347;48.780;9.158;2022-11-30T09:19:27;9.90;39.30
728;DHT22;347;48.780;9.158;2022-11-30T09:21:52;10.10;37.40
728;DHT22;347;48.780;9.158;2022-11-30T09:24:19;10.10;36.60
728;DHT22;347;48.780;9.158;2022-11-30T09:26:45;10.10;37.00
728;DHT22;347;48.780;9.158;2022-11-30T09:29:11;10.00;37.50
728;DHT22;347;48.780;9.158;2022-11-30T09:31:36;10.10;37.40
728;DHT22;347;48.780;9.158;2022-11-30T09:34:02;10.10;37.30
728;DHT22;347;48.780;9.158;2022-11-30T09:36:28;10.30;37.10
728;DHT22;347;48.780;9.158;2022-11-30T09:38:55;10.20;37.90
728;DHT22;347;48.780;9.158;2022-11-30T09:41:39;10.10;37.30
728;DHT22;347;48.780;9.158;2022-11-30T09:49:28;10.00;38.70
728;DHT22;347;48.780;9.158;2022-11-30T09:51:55;10.00;38.60
728;DHT22;347;48.780;9.158;2022-11-30T09:54:40;9.90;39.90
728;DHT22;347;48.780;9.158;2022-11-30T09:57:26;9.80;40.60
728;DHT22;347;48.780;9.158;2022-11-30T09:59:58;9.70;40.80
728;DHT22;347;48.780;9.158;2022-11-30T10:02:31;9.70;40.20
728;DHT22;347;48.780;9.158;2022-11-30T10:04:59;9.60;40.30
728;DHT22;347;48.780;9.158;2022-11-30T10:07:41;9.50;40.90
728;DHT22;347;48.780;9.158;2022-11-30T10:26:25;10.10;36.70
728;DHT22;347;48.780;9.158;2022-11-30T10:28:53;10.20;35.90
728;DHT22;347;48.780;9.158;2022-11-30T10:31:33;10.30;35.00
728;DHT22;347;48.780;9.158;2022-11-30T10:36:44;10.30;35.80
728;DHT22;347;48.780;9.158;2022-11-30T10:42:21;10.20;37.00
728;DHT22;347;48.780;9.158;2022-11-30T10:45:04;10.30;36.90
728;DHT22;347;48.780;9.158;2022-11-30T10:47:34;10.30;36.20
728;DHT22;347;48.780;9.158;2022-11-30T10:50:05;10.10;36.10
728;DHT22;347;48.780;9.158;2022-11-30T10:52:44;10.10;37.50
728;DHT22;347;48.780;9.158;2022-11-30T10:55:32;10.20;37.20
728;DHT22;347;48.780;9.158;2022-11-30T10:58:21;10.40;36.20
728;DHT22;347;48.780;9.158;2022-11-30T11:01:00;10.40;37.40
728;DHT22;347;48.780;9.158;2022-11-30T11:03:26;10.50;36.50
728;DHT22;347;48.780;9.158;2022-11-30T11:06:13;10.60;35.60
728;DHT22;347;48.780;9.158;2022-11-30T11:08:40;10.70;35.10
728;DHT22;347;48.780;9.158;2022-11-30T11:11:34;10.80;34.90
728;DHT22;347;48.780;9.158;2022-11-30T11:14:27;10.80;35.20
728;DHT22;347;48.780;9.158;2022-11-30T11:17:03;10.90;34.70
728;DHT22;347;48.780;9.158;2022-11-30T11:19:33;11.00;34.20
728;DHT22;347;48.780;9.158;2022-11-30T11:22:03;11.00;33.80
728;DHT22;347;48.780;9.158;2022-11-30T11:24:30;11.00;33.50
728;DHT22;347;48.780;9.158;2022-11-30T11:26:56;11.00;33.50
728;DHT22;347;48.780;9.158;2022-11-30T11:29:30;11.00;33.70
728;DHT22;347;48.780;9.158;2022-11-30T11:32:20;10.90;34.30
728;DHT22;347;48.780;9.158;2022-11-30T11:34:47;10.90;34.20
728;DHT22;347;48.780;9.158;2022-11-30T11:42:48;10.80;33.70
728;DHT22;347;48.780;9.158;2022-11-30T11:45:26;10.80;33.60
728;DHT22;347;48.780;9.158;2022-11-30T11:48:01;10.80;33.80
728;DHT22;347;48.780;9.158;2022-11-30T11:50:32;10.80;34.20
728;DHT22;347;48.780;9.158;2022-11-30T11:56:11;10.70;34.10
728;DHT22;347;48.780;9.158;2022-11-30T11:58:40;10.80;33.90
728;DHT22;347;48.780;9.158;2022-11-30T12:01:13;10.80;33.90
728;DHT22;347;48.780;9.158;2022-11-30T12:06:21;10.70;34.00
728;DHT22;347;48.780;9.158;2022-11-30T12:08:55;10.70;33.50
728;DHT22;347;48.780;9.158;2022-11-30T12:11:47;10.70;33.70
728;DHT22;347;48.780;9.158;2022-11-30T12:14:16;10.80;34.10
728;DHT22;347;48.780;9.158;2022-11-30T12:27:37;10.70;33.00
728;DHT22;347;48.780;9.158;2022-11-30T12:30:30;10.70;33.10
728;DHT22;347;48.780;9.158;2022-11-30T12:38:33;10.40;33.40
728;DHT22;347;48.780;9.158;2022-11-30T12:57:33;10.60;32.00
728;DHT22;347;48.780;9.158;2022-11-30T13:05:55;10.60;32.50
728;DHT22;347;48.780;9.158;2022-11-30T13:08:32;10.60;32.80
728;DHT22;347;48.780;9.158;2022-11-30T13:11:10;10.60;33.10
728;DHT22;347;48.780;9.158;2022-11-30T13:13:45;10.70;32.70
728;DHT22;347;48.780;9.158;2022-11-30T13:16:13;10.60;33.10
728;DHT22;347;48.780;9.158;2022-11-30T13:18:40;10.60;33.20
728;DHT22;347;48.780;9.158;2022-11-30T13:21:18;10.60;33.80
728;DHT22;347;48.780;9.158;2022-11-30T13:24:15;10.70;34.00
728;DHT22;347;48.780;9.158;2022-11-30T13:27:03;10.60;34.40
728;DHT22;347;48.780;9.158;2022-11-30T13:30:01;10.60;34.40
728;DHT22;347;48.780;9.158;2022-11-30T13:32:32;10.60;34.50
728;DHT22;347;48.780;9.158;2022-11-30T13:38:14;10.50;35.10
728;DHT22;347;48.780;9.158;2022-11-30T13:40:40;10.60;35.10
728;DHT22;347;48.780;9.158;2022-11-30T13:43:15;10.60;35.10
728;DHT22;347;48.780;9.158;2022-11-30T13:45:41;10.60;35.20
728;DHT22;347;48.780;9.158;2022-11-30T13:48:32;10.60;34.80
728;DHT22;347;48.780;9.158;2022-11-30T13:50:58;10.40;35.70
728;DHT22;347;48.780;9.158;2022-11-30T13:53:29;10.40;35.30
728;DHT22;347;48.780;9.158;2022-11-30T13:56:46;10.40;35.30
728;DHT22;347;48.780;9.158;2022-11-30T14:01:48;10.50;34.30
728;DHT22;347;48.780;9.158;2022-11-30T14:06:51;10.40;34.90
728;DHT22;347;48.780;9.158;2022-11-30T14:17:48;10.50;35.30
728;DHT22;347;48.780;9.158;2022-11-30T14:20:17;10.60;35.40
728;DHT22;347;48.780;9.158;2022-11-30T14:22:44;10.60;34.60
728;DHT22;347;48.780;9.158;2022-11-30T14:25:17;10.60;34.90
728;DHT22;347;48.780;9.158;2022-11-30T14:27:46;10.60;34.90
728;DHT22;347;48.780;9.158;2022-11-30T14:30:18;10.70;34.80
728;DHT22;347;48.780;9.158;2022-11-30T14:32:54;10.60;34.90
728;DHT22;347;48.780;9.158;2022-11-30T14:35:22;10.40;36.20
728;DHT22;347;48.780;9.158;2022-11-30T14:37:56;10.50;35.80
728;DHT22;347;48.780;9.158;2022-11-30T14:40:24;10.60;35.80
728;DHT22;347;48.780;9.158;2022-11-30T14:42:51;10.70;35.70
728;DHT22;347;48.780;9.158;2022-11-30T14:45:19;10.70;35.10
728;DHT22;347;48.780;9.158;2022-11-30T14:47:50;10.80;35.60
728;DHT22;347;48.780;9.158;2022-11-30T14:50:23;10.80;35.10
728;DHT22;347;48.780;9.158;2022-11-30T15:01:43;10.80;34.90
728;DHT22;347;48.780;9.158;2022-11-30T15:04:12;10.80;34.80
728;DHT22;347;48.780;9.158;2022-11-30T15:06:40;10.80;34.50
728;DHT22;347;48.780;9.158;2022-11-30T15:09:16;10.80;34.60
728;DHT22;347;48.780;9.158;2022-11-30T15:11:44;10.80;34.80
728;DHT22;347;48.780;9.158;2022-11-30T15:14:11;10.80;34.50
728;DHT22;347;48.780;9.158;2022-11-30T15:16:37;10.80;34.50
728;DHT22;347;48.780;9.158;2022-11-30T15:21:48;10.80;34.50
728;DHT22;347;48.780;9.158;2022-11-30T15:24:13;10.70;34.50
728;DHT22;347;48.780;9.158;2022-11-30T15:29:13;10.60;35.00
728;DHT22;347;48.780;9.158;2022-11-30T15:31:44;10.60;34.70
728;DHT22;347;48.780;9.158;2022-11-30T15:34:48;10.70;34.40
728;DHT22;347;48.780;9.158;2022-11-30T15:37:15;10.60;34.30
728;DHT22;347;48.780;9.158;2022-11-30T15:39:47;10.60;34.20
728;DHT22;347;48.780;9.158;2022-11-30T15:42:27;10.60;34.30
728;DHT22;347;48.780;9.158;2022-11-30T15:45:09;10.60;34.50
728;DHT22;347;48.780;9.158;2022-11-30T15:47:35;10.70;34.60
728;DHT22;347;48.780;9.158;2022-11-30T15:52:58;10.60;34.90
728;DHT22;347;48.780;9.158;2022-11-30T15:56:00;10.70;34.90
728;DHT22;347;48.780;9.158;2022-11-30T15:58:37;10.60;34.90
728;DHT22;347;48.780;9.158;2022-11-30T16:01:20;10.70;35.10
728;DHT22;347;48.780;9.158;2022-11-30T16:08:51;10.60;35.40
728;DHT22;347;48.780;9.158;2022-11-30T16:11:17;10.70;35.60
728;DHT22;347;48.780;9.158;2022-11-30T16:13:44;10.70;36.00
728;DHT22;347;48.780;9.158;2022-11-30T16:16:12;10.60;36.30
728;DHT22;347;48.780;9.158;2022-11-30T16:18:39;10.60;36.00
728;DHT22;347;48.780;9.158;2022-11-30T16:21:05;10.60;36.00
728;DHT22;347;48.780;9.158;2022-11-30T16:23:33;10.60;36.10
728;DHT22;347;48.780;9.158;2022-11-30T16:25:59;10.60;35.90
728;DHT22;347;48.780;9.158;2022-11-30T16:28:25;10.60;35.70
728;DHT22;347;48.780;9.158;2022-11-30T16:30:51;10.50;36.00
728;DHT22;347;48.780;9.158;2022-11-30T16:33:22;10.40;36.60
728;DHT22;347;48.780;9.158;2022-11-30T16:35:59;10.50;36.40
728;DHT22;347;48.780;9.158;2022-11-30T16:38:27;10.50;36.20
728;DHT22;347;48.780;9.158;2022-11-30T16:40:53;10.50;36.30
728;DHT22;347;48.780;9.158;2022-11-30T16:43:20;10.50;36.10
728;DHT22;347;48.780;9.158;2022-11-30T16:45:47;10.50;35.90
728;DHT22;347;48.780;9.158;2022-11-30T16:48:15;10.60;35.80
728;DHT22;347;48.780;9.158;2022-11-30T16:50:42;10.60;36.20
728;DHT22;347;48.780;9.158;2022-11-30T16:53:11;10.60;36.00
728;DHT22;347;48.780;9.158;2022-11-30T16:55:39;10.60;36.20
728;DHT22;347;48.780;9.158;2022-11-30T16:58:05;10.60;35.80
728;DHT22;347;48.780;9.158;2022-11-30T17:00:31;10.60;35.70
728;DHT22;347;48.780;9.158;2022-11-30T17:03:25;10.60;35.70
728;DHT22;347;48.780;9.158;2022-11-30T17:05:52;10.50;35.70
728;DHT22;347;48.780;9.158;2022-11-30T17:08:18;10.50;35.40
728;DHT22;347;48.780;9.158;2022-11-30T17:10:44;10.50;35.50
728;DHT22;347;48.780;9.158;2022-11-30T17:13:13;10.50;35.70
728;DHT22;347;48.780;9.158;2022-11-30T17:15:39;10.50;35.90
728;DHT22;347;48.780;9.158;2022-11-30T17:18:04;10.50;35.80
728;DHT22;347;48.780;9.158;2022-11-30T17:20:30;10.60;36.00
728;DHT22;347;48.780;9.158;2022-11-30T17:22:56;10.50;35.90
728;DHT22;347;48.780;9.158;2022-11-30T17:25:22;10.60;36.10
728;DHT22;347;48.780;9.158;2022-11-30T17:27:48;10.60;37.50
728;DHT22;347;48.780;9.158;2022-11-30T17:30:16;10.60;36.40
728;DHT22;347;48.780;9.158;2022-11-30T17:32:42;10.60;35.60
728;DHT22;347;48.780;9.158;2022-11-30T17:35:08;10.60;35.50
728;DHT22;347;48.780;9.158;2022-11-30T17:37:34;10.60;35.50
728;DHT22;347;48.780;9.158;2022-11-30T17:40:00;10.60;35.40
728;DHT22;347;48.780;9.158;2022-11-30T17:42:26;10.60;35.70
728;DHT22;347;48.780;9.158;2022-11-30T17:44:51;10.60;35.70
728;DHT22;347;48.780;9.158;2022-11-30T17:47:17;10.60;35.60
728;DHT22;347;48.780;9.158;2022-11-30T17:49:43;10.60;35.60
728;DHT22;347;48.780;9.158;2022-11-30T17:52:09;10.50;35.30
728;DHT22;347;48.780;9.158;2022-11-30T17:54:34;10.50;35.60
728;DHT22;347;48.780;9.158;2022-11-30T17:57:00;10.40;35.70
728;DHT22;347;48.780;9.158;2022-11-30T17:59:26;10.50;36.10
728;DHT22;347;48.780;9.158;2022-11-30T18:01:51;10.50;36.00
728;DHT22;347;48.780;9.158;2022-11-30T18:04:17;10.50;35.80
728;DHT22;347;48.780;9.158;2022-11-30T18:06:42;10.40;35.70
728;DHT22;347;48.780;9.158;2022-11-30T18:09:08;10.30;34.90
728;DHT22;347;48.780;9.158;2022-11-30T18:11:34;10.30;34.20
728;DHT22;347;48.780;9.158;2022-11-30T18:14:00;10.20;34.20
728;DHT22;347;48.780;9.158;2022-11-30T18:16:30;10.20;34.00
728;DHT22;347;48.780;9.158;2022-11-30T18:18:57;10.20;33.90
728;DHT22;347;48.780;9.158;2022-11-30T18:21:25;10.10;34.10
728;DHT22;347;48.780;9.158;2022-11-30T18:23:51;10.20;34.40
728;DHT22;347;48.780;9.158;2022-11-30T18:26:22;10.20;33.70
728;DHT22;347;48.780;9.158;2022-11-30T18:28:53;10.20;33.00
728;DHT22;347;48.780;9.158;2022-11-30T18:31:19;10.20;33.40
728;DHT22;347;48.780;9.158;2022-11-30T18:33:45;10.20;33.00
728;DHT22;347;48.780;9.158;2022-11-30T18:36:11;10.00;33.80
728;DHT22;347;48.780;9.158;2022-11-30T18:38:36;10.00;34.10
728;DHT22;347;48.780;9.158;2022-11-30T18:41:02;10.00;33.70
728;DHT22;347;48.780;9.158;2022-11-30T18:43:28;10.00;33.70
728;DHT22;347;48.780;9.158;2022-11-30T18:46:05;10.00;32.40
728;DHT22;347;48.780;9.158;2022-11-30T18:48:31;9.90;33.40
728;DHT22;347;48.780;9.158;2022-11-30T18:50:57;9.90;33.60
728;DHT22;347;48.780;9.158;2022-11-30T18:53:23;10.00;33.00
728;DHT22;347;48.780;9.158;2022-11-30T18:55:48;10.00;32.90
728;DHT22;347;48.780;9.158;2022-11-30T18:58:14;9.80;34.50
728;DHT22;347;48.780;9.158;2022-11-30T19:00:40;9.80;34.50
728;DHT22;347;48.780;9.158;2022-11-30T19:03:05;9.70;34.70